sensor_id;sensor_type;location;lat;lon;timestamp;temperature;humidity
2873;DHT22;1444;49.166;7.312;2023-02-25T00:01:04;8.00;95.50
2873;DHT22;1444;49.166;7.312;2023-02-25T00:03:32;8.00;95.40
2873;DHT22;1444;49.166;7.312;2023-02-25T00:06:00;7.90;95.30
2873;DHT22;1444;49.166;7.312;2023-02-25T00:08:27;7.90;95.30
2873;DHT22;1444;49.166;7.312;2023-02-25T00:10:57;7.80;95.10
2873;DHT22;1444;49.166;7.312;2023-02-25T00:13:25;7.90;95.20
2873;DHT22;1444;49.166;7.312;2023-02-25T00:15:52;7.80;95.10
2873;DHT22;1444;49.166;7.312;2023-02-25T00:18:18;7.80;95.20
2873;DHT22;1444;49.166;7.312;2023-02-25T00:20:46;7.90;95.40
2873;DHT22;1444;49.166;7.312;2023-02-25T00:23:13;7.90;95.10
2873;DHT22;1444;49.166;7.312;2023-02-25T00:25:40;7.90;95.00
2873;DHT22;1444;49.166;7.312;2023-02-25T00:28:06;7.80;95.00
2873;DHT22;1444;49.166;7.312;2023-02-25T00:30:33;7.80;95.10
2873;DHT22;1444;49.166;7.312;2023-02-25T00:33:00;7.90;95.10
2873;DHT22;1444;49.166;7.312;2023-02-25T00:35:27;7.80;94.90
2873;DHT22;1444;49.166;7.312;2023-02-25T00:37:55;7.70;94.80
2873;DHT22;1444;49.166;7.312;2023-02-25T00:40:21;7.70;94.70
2873;DHT22;1444;49.166;7.312;2023-02-25T00:42:48;7.70;94.60
2873;DHT22;1444;49.166;7.312;2023-02-25T00:45:15;7.60;94.60
2873;DHT22;1444;49.166;7.312;2023-02-25T00:47:42;7.50;94.60
2873;DHT22;1444;49.166;7.312;2023-02-25T00:50:10;7.50;94.90
2873;DHT22;1444;49.166;7.312;2023-02-25T00:52:39;7.60;95.00
2873;DHT22;1444;49.166;7.312;2023-02-25T00:55:08;7.50;94.70
2873;DHT22;1444;49.166;7.312;2023-02-25T00:57:35;7.50;94.70
2873;DHT22;1444;49.166;7.312;2023-02-25T01:00:02;7.50;94.90
2873;DHT22;1444;49.166;7.312;2023-02-25T01:02:33;7.50;94.90
2873;DHT22;1444;49.166;7.312;2023-02-25T01:05:00;7.60;95.00
2873;DHT22;1444;49.166;7.312;2023-02-25T01:07:27;7.60;94.80
2873;DHT22;1444;49.166;7.312;2023-02-25T01:09:54;7.60;94.80
2873;DHT22;1444;49.166;7.312;2023-02-25T01:12:22;7.60;94.80
2873;DHT22;1444;49.166;7.312;2023-02-25T01:14:49;7.60;94.70
2873;DHT22;1444;49.166;7.312;2023-02-25T01:17:15;7.60;94.80
2873;DHT22;1444;49.166;7.312;2023-02-25T01:19:42;7.60;94.90
2873;DHT22;1444;49.166;7.312;2023-02-25T01:22:09;7.60;94.90
2873;DHT22;1444;49.166;7.312;2023-02-25T01:24:35;7.60;95.00
2873;DHT22;1444;49.166;7.312;2023-02-25T01:27:03;7.60;95.00
2873;DHT22;1444;49.166;7.312;2023-02-25T01:29:33;7.40;94.60
2873;DHT22;1444;49.166;7.312;2023-02-25T01:32:02;7.40;94.80
2873;DHT22;1444;49.166;7.312;2023-02-25T01:34:29;7.40;94.90
2873;DHT22;1444;49.166;7.312;2023-02-25T01:36:56;7.30;95.00
2873;DHT22;1444;49.166;7.312;2023-02-25T01:39:24;7.30;95.00
2873;DHT22;1444;49.166;7.312;2023-02-25T01:41:52;7.30;95.00
2873;DHT22;1444;49.166;7.312;2023-02-25T01:44:21;7.20;95.10
2873;DHT22;1444;49.166;7.312;2023-02-25T01:46:50;7.20;95.20
2873;DHT22;1444;49.166;7.312;2023-02-25T01:49:20;7.10;95.10
2873;DHT22;1444;49.166;7.312;2023-02-25T01:51:56;7.10;95.20
2873;DHT22;1444;49.166;7.312;2023-02-25T01:54:24;6.90;95.10
2873;DHT22;1444;49.166;7.312;2023-02-25T01:56:54;6.90;95.30
2873;DHT22;1444;49.166;7.312;2023-02-25T01:59:24;6.80;95.40
2873;DHT22;1444;49.166;7.312;2023-02-25T02:01:53;6.90;95.40
2873;DHT22;1444;49.166;7.312;2023-02-25T02:04:21;6.80;95.30
2873;DHT22;1444;49.166;7.312;2023-02-25T02:06:48;6.70;95.40
2873;DHT22;1444;49.166;7.312;2023-02-25T02:09:18;6.70;95.30
2873;DHT22;1444;49.166;7.312;2023-02-25T02:11:46;6.60;95.20
2873;DHT22;1444;49.166;7.312;2023-02-25T02:14:19;6.50;95.10
2873;DHT22;1444;49.166;7.312;2023-02-25T02:17:01;6.50;95.00
2873;DHT22;1444;49.166;7.312;2023-02-25T02:19:40;6.50;95.10
2873;DHT22;1444;49.166;7.312;2023-02-25T02:22:12;6.50;95.00
2873;DHT22;1444;49.166;7.312;2023-02-25T02:27:59;6.50;95.00
2873;DHT22;1444;49.166;7.312;2023-02-25T02:30:50;6.60;95.10
2873;DHT22;1444;49.166;7.312;2023-02-25T02:33:31;6.50;95.20
2873;DHT22;1444;49.166;7.312;2023-02-25T02:36:06;6.50;95.00
2873;DHT22;1444;49.166;7.312;2023-02-25T02:38:45;6.40;94.90
2873;DHT22;1444;49.166;7.312;2023-02-25T02:41:22;6.50;95.00
2873;DHT22;1444;49.166;7.312;2023-02-25T02:43:55;6.50;95.00
2873;DHT22;1444;49.166;7.312;2023-02-25T02:46:24;6.50;94.90
2873;DHT22;1444;49.166;7.312;2023-02-25T02:48:58;6.50;94.80
2873;DHT22;1444;49.166;7.312;2023-02-25T02:51:30;6.40;94.90
2873;DHT22;1444;49.166;7.312;2023-02-25T02:54:00;6.40;94.70
2873;DHT22;1444;49.166;7.312;2023-02-25T02:56:32;6.40;94.80
2873;DHT22;1444;49.166;7.312;2023-02-25T02:59:02;6.40;95.10
2873;DHT22;1444;49.166;7.312;2023-02-25T03:01:32;6.40;95.00
2873;DHT22;1444;49.166;7.312;2023-02-25T03:06:32;6.30;94.90
2873;DHT22;1444;49.166;7.312;2023-02-25T03:09:04;6.30;95.00
2873;DHT22;1444;49.166;7.312;2023-02-25T03:11:31;6.20;95.20
2873;DHT22;1444;49.166;7.312;2023-02-25T03:13:58;6.20;95.20
2873;DHT22;1444;49.166;7.312;2023-02-25T03:16:28;6.10;95.00
2873;DHT22;1444;49.166;7.312;2023-02-25T03:18:59;6.00;95.10
2873;DHT22;1444;49.166;7.312;2023-02-25T03:21:34;5.90;95.30
2873;DHT22;1444;49.166;7.312;2023-02-25T03:24:04;5.90;95.50
2873;DHT22;1444;49.166;7.312;2023-02-25T03:26:33;5.80;95.50
2873;DHT22;1444;49.166;7.312;2023-02-25T03:29:00;5.80;95.60
2873;DHT22;1444;49.166;7.312;2023-02-25T03:31:30;5.60;95.90
2873;DHT22;1444;49.166;7.312;2023-02-25T03:34:01;5.60;95.90
2873;DHT22;1444;49.166;7.312;2023-02-25T03:36:33;5.70;96.00
2873;DHT22;1444;49.166;7.312;2023-02-25T03:39:05;5.60;96.30
2873;DHT22;1444;49.166;7.312;2023-02-25T03:41:35;5.70;96.10
2873;DHT22;1444;49.166;7.312;2023-02-25T03:44:07;5.70;96.20
2873;DHT22;1444;49.166;7.312;2023-02-25T03:46:35;5.70;96.50
2873;DHT22;1444;49.166;7.312;2023-02-25T03:49:03;5.70;96.50
2873;DHT22;1444;49.166;7.312;2023-02-25T03:51:39;5.60;96.60
2873;DHT22;1444;49.166;7.312;2023-02-25T03:54:06;5.60;96.90
2873;DHT22;1444;49.166;7.312;2023-02-25T03:56:40;5.70;96.90
2873;DHT22;1444;49.166;7.312;2023-02-25T03:59:08;5.80;97.00
2873;DHT22;1444;49.166;7.312;2023-02-25T04:01:36;5.80;97.10
2873;DHT22;1444;49.166;7.312;2023-02-25T04:04:03;5.90;97.10
2873;DHT22;1444;49.166;7.312;2023-02-25T04:06:30;6.00;97.20
2873;DHT22;1444;49.166;7.312;2023-02-25T04:08:58;6.00;96.90
2873;DHT22;1444;49.166;7.312;2023-02-25T04:11:25;6.00;96.80
2873;DHT22;1444;49.166;7.312;2023-02-25T04:13:52;6.10;96.70
2873;DHT22;1444;49.166;7.312;2023-02-25T04:16:19;6.20;96.70
2873;DHT22;1444;49.166;7.312;2023-02-25T04:18:45;6.20;96.50
2873;DHT22;1444;49.166;7.312;2023-02-25T04:21:25;6.30;96.50
2873;DHT22;1444;49.166;7.312;2023-02-25T04:23:52;6.30;96.40
2873;DHT22;1444;49.166;7.312;2023-02-25T04:26:20;6.30;96.60
2873;DHT22;1444;49.166;7.312;2023-02-25T04:28:47;6.30;96.50
2873;DHT22;1444;49.166;7.312;2023-02-25T04:31:13;6.40;96.40
2873;DHT22;1444;49.166;7.312;2023-02-25T04:33:40;6.30;96.50
2873;DHT22;1444;49.166;7.312;2023-02-25T04:36:21;6.30;96.50
2873;DHT22;1444;49.166;7.312;2023-02-25T04:38:48;6.30;96.70
2873;DHT22;1444;49.166;7.312;2023-02-25T04:41:15;6.40;96.70
2873;DHT22;1444;49.166;7.312;2023-02-25T04:43:43;6.40;96.60
2873;DHT22;1444;49.166;7.312;2023-02-25T04:46:11;6.50;96.60
2873;DHT22;1444;49.166;7.312;2023-02-25T04:48:38;6.50;96.40
2873;DHT22;1444;49.166;7.312;2023-02-25T04:51:05;6.50;96.30
2873;DHT22;1444;49.166;7.312;2023-02-25T04:53:32;6.50;96.30
2873;DHT22;1444;49.166;7.312;2023-02-25T04:56:01;6.50;96.20
2873;DHT22;1444;49.166;7.312;2023-02-25T04:58:28;6.50;96.10
2873;DHT22;1444;49.166;7.312;2023-02-25T05:00:58;6.40;95.90
2873;DHT22;1444;49.166;7.312;2023-02-25T05:03:25;6.50;96.10
2873;DHT22;1444;49.166;7.312;2023-02-25T05:05:52;6.50;96.00
2873;DHT22;1444;49.166;7.312;2023-02-25T05:08:18;6.50;96.00
2873;DHT22;1444;49.166;7.312;2023-02-25T05:10:45;6.50;96.00
2873;DHT22;1444;49.166;7.312;2023-02-25T05:13:12;6.50;95.80
2873;DHT22;1444;49.166;7.312;2023-02-25T05:15:39;6.60;95.80
2873;DHT22;1444;49.166;7.312;2023-02-25T05:18:07;6.50;95.80
2873;DHT22;1444;49.166;7.312;2023-02-25T05:20:38;6.40;95.80
2873;DHT22;1444;49.166;7.312;2023-02-25T05:23:05;6.50;95.90
2873;DHT22;1444;49.166;7.312;2023-02-25T05:25:32;6.50;95.90
2873;DHT22;1444;49.166;7.312;2023-02-25T05:27:59;6.50;95.80
2873;DHT22;1444;49.166;7.312;2023-02-25T05:30:26;6.50;95.70
2873;DHT22;1444;49.166;7.312;2023-02-25T05:32:52;6.50;96.00
2873;DHT22;1444;49.166;7.312;2023-02-25T05:35:21;6.60;96.00
2873;DHT22;1444;49.166;7.312;2023-02-25T05:37:47;6.60;96.10
2873;DHT22;1444;49.166;7.312;2023-02-25T05:40:14;6.60;95.70
2873;DHT22;1444;49.166;7.312;2023-02-25T05:42:41;6.50;95.60
2873;DHT22;1444;49.166;7.312;2023-02-25T05:45:08;6.50;95.70
2873;DHT22;1444;49.166;7.312;2023-02-25T05:47:35;6.50;95.60
2873;DHT22;1444;49.166;7.312;2023-02-25T05:50:02;6.50;95.80
2873;DHT22;1444;49.166;7.312;2023-02-25T05:52:30;6.50;95.50
2873;DHT22;1444;49.166;7.312;2023-02-25T05:54:57;6.50;95.60
2873;DHT22;1444;49.166;7.312;2023-02-25T05:57:24;6.40;95.50
2873;DHT22;1444;49.166;7.312;2023-02-25T05:59:51;6.40;95.50
2873;DHT22;1444;49.166;7.312;2023-02-25T06:02:18;6.40;95.30
2873;DHT22;1444;49.166;7.312;2023-02-25T06:04:44;6.40;95.30
2873;DHT22;1444;49.166;7.312;2023-02-25T06:07:12;6.40;95.20
2873;DHT22;1444;49.166;7.312;2023-02-25T06:09:40;6.40;95.20
2873;DHT22;1444;49.166;7.312;2023-02-25T06:12:07;6.40;95.30
2873;DHT22;1444;49.166;7.312;2023-02-25T06:14:33;6.40;95.30
2873;DHT22;1444;49.166;7.312;2023-02-25T06:17:01;6.40;95.20
2873;DHT22;1444;49.166;7.312;2023-02-25T06:19:27;6.40;95.20
2873;DHT22;1444;49.166;7.312;2023-02-25T06:21:54;6.30;95.30
2873;DHT22;1444;49.166;7.312;2023-02-25T06:24:21;6.30;95.30
2873;DHT22;1444;49.166;7.312;2023-02-25T06:26:50;6.20;95.40
2873;DHT22;1444;49.166;7.312;2023-02-25T06:29:17;6.30;95.30
2873;DHT22;1444;49.166;7.312;2023-02-25T06:31:43;6.30;95.40
2873;DHT22;1444;49.166;7.312;2023-02-25T06:34:10;6.30;95.20
2873;DHT22;1444;49.166;7.312;2023-02-25T06:36:36;6.30;95.20
2873;DHT22;1444;49.166;7.312;2023-02-25T06:39:03;6.30;95.20
2873;DHT22;1444;49.166;7.312;2023-02-25T06:41:30;6.40;95.00
2873;DHT22;1444;49.166;7.312;2023-02-25T06:43:58;6.40;95.20
2873;DHT22;1444;49.166;7.312;2023-02-25T06:46:25;6.40;95.10
2873;DHT22;1444;49.166;7.312;2023-02-25T06:48:52;6.50;94.90
2873;DHT22;1444;49.166;7.312;2023-02-25T06:51:19;6.40;94.70
2873;DHT22;1444;49.166;7.312;2023-02-25T06:53:45;6.50;94.90
2873;DHT22;1444;49.166;7.312;2023-02-25T06:56:14;6.50;94.50
2873;DHT22;1444;49.166;7.312;2023-02-25T06:58:41;6.60;94.50
2873;DHT22;1444;49.166;7.312;2023-02-25T07:01:12;6.60;94.30
2873;DHT22;1444;49.166;7.312;2023-02-25T07:03:39;6.60;94.00
2873;DHT22;1444;49.166;7.312;2023-02-25T07:06:06;6.60;94.30
2873;DHT22;1444;49.166;7.312;2023-02-25T07:08:33;6.50;93.40
2873;DHT22;1444;49.166;7.312;2023-02-25T07:11:12;6.60;94.00
2873;DHT22;1444;49.166;7.312;2023-02-25T07:13:39;6.60;93.90
2873;DHT22;1444;49.166;7.312;2023-02-25T07:16:09;6.60;93.80
2873;DHT22;1444;49.166;7.312;2023-02-25T07:18:36;6.60;93.60
2873;DHT22;1444;49.166;7.312;2023-02-25T07:21:03;6.60;93.70
2873;DHT22;1444;49.166;7.312;2023-02-25T07:23:29;6.60;93.90
2873;DHT22;1444;49.166;7.312;2023-02-25T07:25:56;6.60;93.80
2873;DHT22;1444;49.166;7.312;2023-02-25T07:28:23;6.60;93.90
2873;DHT22;1444;49.166;7.312;2023-02-25T07:30:49;6.70;94.20
2873;DHT22;1444;49.166;7.312;2023-02-25T07:33:17;6.70;94.00
2873;DHT22;1444;49.166;7.312;2023-02-25T07:35:44;6.60;93.60
2873;DHT22;1444;49.166;7.312;2023-02-25T07:38:11;6.70;94.00
2873;DHT22;1444;49.166;7.312;2023-02-25T07:40:38;6.70;94.10
2873;DHT22;1444;49.166;7.312;2023-02-25T07:43:06;6.70;93.90
2873;DHT22;1444;49.166;7.312;2023-02-25T07:45:33;6.70;94.00
2873;DHT22;1444;49.166;7.312;2023-02-25T07:47:59;6.80;93.90
2873;DHT22;1444;49.166;7.312;2023-02-25T07:50:28;6.80;93.90
2873;DHT22;1444;49.166;7.312;2023-02-25T07:52:54;6.80;94.50
2873;DHT22;1444;49.166;7.312;2023-02-25T07:55:21;6.80;94.00
2873;DHT22;1444;49.166;7.312;2023-02-25T07:57:48;6.80;94.10
2873;DHT22;1444;49.166;7.312;2023-02-25T08:00:15;6.80;94.00
2873;DHT22;1444;49.166;7.312;2023-02-25T08:02:43;6.80;94.20
2873;DHT22;1444;49.166;7.312;2023-02-25T08:05:10;6.80;94.40
2873;DHT22;1444;49.166;7.312;2023-02-25T08:07:38;6.80;94.60
2873;DHT22;1444;49.166;7.312;2023-02-25T08:10:05;6.80;94.40
2873;DHT22;1444;49.166;7.312;2023-02-25T08:12:32;6.90;94.60
2873;DHT22;1444;49.166;7.312;2023-02-25T08:14:59;6.90;94.60
2873;DHT22;1444;49.166;7.312;2023-02-25T08:17:26;6.90;94.40
2873;DHT22;1444;49.166;7.312;2023-02-25T08:19:56;6.90;94.80
2873;DHT22;1444;49.166;7.312;2023-02-25T08:22:23;6.90;94.90
2873;DHT22;1444;49.166;7.312;2023-02-25T08:24:51;7.00;94.60
2873;DHT22;1444;49.166;7.312;2023-02-25T08:27:18;7.00;94.90
2873;DHT22;1444;49.166;7.312;2023-02-25T08:29:45;7.00;94.70
2873;DHT22;1444;49.166;7.312;2023-02-25T08:32:11;6.90;94.70
2873;DHT22;1444;49.166;7.312;2023-02-25T08:34:38;7.00;94.80
2873;DHT22;1444;49.166;7.312;2023-02-25T08:37:07;7.00;94.60
2873;DHT22;1444;49.166;7.312;2023-02-25T08:39:35;7.00;94.80
2873;DHT22;1444;49.166;7.312;2023-02-25T08:42:04;7.00;94.30
2873;DHT22;1444;49.166;7.312;2023-02-25T08:44:30;7.00;93.80
2873;DHT22;1444;49.166;7.312;2023-02-25T08:46:57;7.00;93.60
2873;DHT22;1444;49.166;7.312;2023-02-25T08:49:24;7.10;93.90
2873;DHT22;1444;49.166;7.312;2023-02-25T08:51:50;7.10;93.40
2873;DHT22;1444;49.166;7.312;2023-02-25T08:54:17;7.10;92.90
2873;DHT22;1444;49.166;7.312;2023-02-25T08:56:44;7.20;93.40
2873;DHT22;1444;49.166;7.312;2023-02-25T08:59:13;7.20;93.50
2873;DHT22;1444;49.166;7.312;2023-02-25T09:01:40;7.20;92.70
2873;DHT22;1444;49.166;7.312;2023-02-25T09:04:11;7.20;92.90
2873;DHT22;1444;49.166;7.312;2023-02-25T09:06:37;7.30;93.00
2873;DHT22;1444;49.166;7.312;2023-02-25T09:09:04;7.20;92.40
2873;DHT22;1444;49.166;7.312;2023-02-25T09:11:31;7.20;92.30
2873;DHT22;1444;49.166;7.312;2023-02-25T09:13:59;7.20;92.30
2873;DHT22;1444;49.166;7.312;2023-02-25T09:16:29;7.30;92.40
2873;DHT22;1444;49.166;7.312;2023-02-25T09:18:56;7.30;91.70
2873;DHT22;1444;49.166;7.312;2023-02-25T09:21:22;7.30;91.30
2873;DHT22;1444;49.166;7.312;2023-02-25T09:23:51;7.30;91.60
2873;DHT22;1444;49.166;7.312;2023-02-25T09:26:18;7.40;91.40
2873;DHT22;1444;49.166;7.312;2023-02-25T09:28:45;7.50;91.30
2873;DHT22;1444;49.166;7.312;2023-02-25T09:31:12;7.50;91.30
2873;DHT22;1444;49.166;7.312;2023-02-25T09:33:42;7.50;91.30
2873;DHT22;1444;49.166;7.312;2023-02-25T09:36:10;7.60;91.50
2873;DHT22;1444;49.166;7.312;2023-02-25T09:38:39;7.70;91.70
2873;DHT22;1444;49.166;7.312;2023-02-25T09:41:17;7.60;91.10
2873;DHT22;1444;49.166;7.312;2023-02-25T09:43:57;7.60;91.60
2873;DHT22;1444;49.166;7.312;2023-02-25T09:46:27;7.70;92.10
2873;DHT22;1444;49.166;7.312;2023-02-25T09:49:00;7.50;92.00
2873;DHT22;1444;49.166;7.312;2023-02-25T09:51:33;7.50;92.30
2873;DHT22;1444;49.166;7.312;2023-02-25T09:54:09;7.50;92.50
2873;DHT22;1444;49.166;7.312;2023-02-25T09:56:41;7.50;92.20
2873;DHT22;1444;49.166;7.312;2023-02-25T09:59:12;7.50;91.90
2873;DHT22;1444;49.166;7.312;2023-02-25T10:01:42;7.50;92.00
2873;DHT22;1444;49.166;7.312;2023-02-25T10:04:16;6.60;92.50
2873;DHT22;1444;49.166;7.312;2023-02-25T10:06:50;7.50;92.40
2873;DHT22;1444;49.166;7.312;2023-02-25T10:09:22;7.60;92.00
2873;DHT22;1444;49.166;7.312;2023-02-25T10:11:59;7.50;91.70
2873;DHT22;1444;49.166;7.312;2023-02-25T10:14:54;7.50;92.20
2873;DHT22;1444;49.166;7.312;2023-02-25T10:17:31;7.60;92.00
2873;DHT22;1444;49.166;7.312;2023-02-25T10:23:08;7.70;92.50
2873;DHT22;1444;49.166;7.312;2023-02-25T10:25:42;7.70;92.60
2873;DHT22;1444;49.166;7.312;2023-02-25T10:28:13;7.70;92.10
2873;DHT22;1444;49.166;7.312;2023-02-25T10:30:47;7.60;91.90
2873;DHT22;1444;49.166;7.312;2023-02-25T10:33:18;7.60;91.90
2873;DHT22;1444;49.166;7.312;2023-02-25T10:35:50;7.70;92.50
2873;DHT22;1444;49.166;7.312;2023-02-25T10:38:19;7.70;92.10
2873;DHT22;1444;49.166;7.312;2023-02-25T10:40:45;7.80;92.20
2873;DHT22;1444;49.166;7.312;2023-02-25T10:43:18;7.80;92.10
2873;DHT22;1444;49.166;7.312;2023-02-25T10:45:49;7.80;91.90
2873;DHT22;1444;49.166;7.312;2023-02-25T10:48:20;7.80;91.70
2873;DHT22;1444;49.166;7.312;2023-02-25T10:51:01;7.80;91.60
2873;DHT22;1444;49.166;7.312;2023-02-25T10:53:30;7.80;91.90
2873;DHT22;1444;49.166;7.312;2023-02-25T10:55:58;7.80;91.30
2873;DHT22;1444;49.166;7.312;2023-02-25T10:58:31;7.80;92.10
2873;DHT22;1444;49.166;7.312;2023-02-25T11:01:04;7.70;91.40
2873;DHT22;1444;49.166;7.312;2023-02-25T11:03:32;7.70;91.50
2873;DHT22;1444;49.166;7.312;2023-02-25T11:06:13;7.70;91.40
2873;DHT22;1444;49.166;7.312;2023-02-25T11:08:42;7.70;91.40
2873;DHT22;1444;49.166;7.312;2023-02-25T11:11:15;7.60;91.10
2873;DHT22;1444;49.166;7.312;2023-02-25T11:13:42;7.70;91.60
2873;DHT22;1444;49.166;7.312;2023-02-25T11:16:11;7.80;91.80
2873;DHT22;1444;49.166;7.312;2023-02-25T11:18:39;7.90;91.00
2873;DHT22;1444;49.166;7.312;2023-02-25T11:21:08;7.80;89.30
2873;DHT22;1444;49.166;7.312;2023-02-25T11:23:44;7.70;88.30
2873;DHT22;1444;49.166;7.312;2023-02-25T11:26:14;7.60;89.10
2873;DHT22;1444;49.166;7.312;2023-02-25T11:28:46;7.60;89.60
2873;DHT22;1444;49.166;7.312;2023-02-25T11:31:17;7.80;90.10
2873;DHT22;1444;49.166;7.312;2023-02-25T11:33:48;7.90;89.60
2873;DHT22;1444;49.166;7.312;2023-02-25T11:36:20;8.10;90.00
2873;DHT22;1444;49.166;7.312;2023-02-25T11:38:49;8.40;89.80
2873;DHT22;1444;49.166;7.312;2023-02-25T11:41:29;8.50;89.30
2873;DHT22;1444;49.166;7.312;2023-02-25T11:43:57;8.50;86.40
2873;DHT22;1444;49.166;7.312;2023-02-25T11:46:25;8.50;86.90
2873;DHT22;1444;49.166;7.312;2023-02-25T11:49:00;8.40;84.20
2873;DHT22;1444;49.166;7.312;2023-02-25T11:51:31;6.20;81.80
2873;DHT22;1444;49.166;7.312;2023-02-25T11:54:17;8.10;83.70
2873;DHT22;1444;49.166;7.312;2023-02-25T11:56:48;8.10;85.40
2873;DHT22;1444;49.166;7.312;2023-02-25T11:59:30;8.20;85.50
2873;DHT22;1444;49.166;7.312;2023-02-25T12:02:23;8.30;86.30
2873;DHT22;1444;49.166;7.312;2023-02-25T12:05:04;8.20;85.70
2873;DHT22;1444;49.166;7.312;2023-02-25T12:07:48;8.20;84.80
2873;DHT22;1444;49.166;7.312;2023-02-25T12:14:07;8.00;86.40
2873;DHT22;1444;49.166;7.312;2023-02-25T12:17:08;8.00;85.70
2873;DHT22;1444;49.166;7.312;2023-02-25T12:20:02;8.10;85.60
2873;DHT22;1444;49.166;7.312;2023-02-25T12:23:00;8.40;85.10
2873;DHT22;1444;49.166;7.312;2023-02-25T12:25:37;8.70;85.50
2873;DHT22;1444;49.166;7.312;2023-02-25T12:28:23;9.20;85.70
2873;DHT22;1444;49.166;7.312;2023-02-25T12:34:15;10.00;80.50
2873;DHT22;1444;49.166;7.312;2023-02-25T12:37:02;10.40;82.50
2873;DHT22;1444;49.166;7.312;2023-02-25T12:39:52;10.90;80.40
2873;DHT22;1444;49.166;7.312;2023-02-25T12:42:33;11.10;79.50
2873;DHT22;1444;49.166;7.312;2023-02-25T12:45:24;11.20;78.10
2873;DHT22;1444;49.166;7.312;2023-02-25T12:51:15;10.80;75.30
2873;DHT22;1444;49.166;7.312;2023-02-25T12:53:53;10.70;75.60
2873;DHT22;1444;49.166;7.312;2023-02-25T12:56:54;10.60;76.00
2873;DHT22;1444;49.166;7.312;2023-02-25T12:59:51;10.40;75.70
2873;DHT22;1444;49.166;7.312;2023-02-25T13:02:42;10.40;77.70
2873;DHT22;1444;49.166;7.312;2023-02-25T13:05:31;10.40;76.60
2873;DHT22;1444;49.166;7.312;2023-02-25T13:08:25;10.60;77.40
2873;DHT22;1444;49.166;7.312;2023-02-25T13:13:45;10.50;76.20
2873;DHT22;1444;49.166;7.312;2023-02-25T13:16:24;10.40;76.50
2873;DHT22;1444;49.166;7.312;2023-02-25T13:19:03;10.20;74.90
2873;DHT22;1444;49.166;7.312;2023-02-25T13:21:42;10.30;77.80
2873;DHT22;1444;49.166;7.312;2023-02-25T13:24:23;10.50;76.40
2873;DHT22;1444;49.166;7.312;2023-02-25T13:27:04;10.50;75.20
2873;DHT22;1444;49.166;7.312;2023-02-25T13:29:56;10.60;77.20
2873;DHT22;1444;49.166;7.312;2023-02-25T13:32:30;10.60;76.40
2873;DHT22;1444;49.166;7.312;2023-02-25T13:37:40;10.80;77.50
2873;DHT22;1444;49.166;7.312;2023-02-25T13:40:23;10.80;76.80
2873;DHT22;1444;49.166;7.312;2023-02-25T13:43:32;11.00;77.50
2873;DHT22;1444;49.166;7.312;2023-02-25T13:46:15;11.10;76.20
2873;DHT22;1444;49.166;7.312;2023-02-25T13:51:51;11.60;80.30
2873;DHT22;1444;49.166;7.312;2023-02-25T13:54:41;11.90;78.00
2873;DHT22;1444;49.166;7.312;2023-02-25T13:57:21;12.10;74.70
2873;DHT22;1444;49.166;7.312;2023-02-25T14:00:11;12.00;76.70
2873;DHT22;1444;49.166;7.312;2023-02-25T14:03:05;11.70;75.50
2873;DHT22;1444;49.166;7.312;2023-02-25T14:05:49;11.70;78.60
2873;DHT22;1444;49.166;7.312;2023-02-25T14:08:36;11.80;78.10
2873;DHT22;1444;49.166;7.312;2023-02-25T14:11:26;12.20;78.90
2873;DHT22;1444;49.166;7.312;2023-02-25T14:14:11;12.30;75.60
2873;DHT22;1444;49.166;7.312;2023-02-25T14:16:48;12.20;74.30
2873;DHT22;1444;49.166;7.312;2023-02-25T14:19:33;11.90;73.40
2873;DHT22;1444;49.166;7.312;2023-02-25T14:22:33;11.80;74.00
2873;DHT22;1444;49.166;7.312;2023-02-25T14:25:13;11.80;74.20
2873;DHT22;1444;49.166;7.312;2023-02-25T14:27:49;11.80;73.90
2873;DHT22;1444;49.166;7.312;2023-02-25T14:30:24;11.80;74.50
2873;DHT22;1444;49.166;7.312;2023-02-25T14:33:08;11.80;74.30
2873;DHT22;1444;49.166;7.312;2023-02-25T14:35:49;11.80;74.50
2873;DHT22;1444;49.166;7.312;2023-02-25T14:38:25;11.70;74.30
2873;DHT22;1444;49.166;7.312;2023-02-25T14:41:01;11.80;77.30
2873;DHT22;1444;49.166;7.312;2023-02-25T14:43:36;11.90;76.30
2873;DHT22;1444;49.166;7.312;2023-02-25T14:46:11;12.10;77.80
2873;DHT22;1444;49.166;7.312;2023-02-25T14:48:43;12.30;76.20
2873;DHT22;1444;49.166;7.312;2023-02-25T14:51:39;12.50;76.80
2873;DHT22;1444;49.166;7.312;2023-02-25T14:57:37;12.30;75.10
2873;DHT22;1444;49.166;7.312;2023-02-25T15:00:27;11.90;75.30
2873;DHT22;1444;49.166;7.312;2023-02-25T15:03:16;11.60;75.30
2873;DHT22;1444;49.166;7.312;2023-02-25T15:06:02;11.00;76.00
2873;DHT22;1444;49.166;7.312;2023-02-25T15:08:52;10.70;76.50
2873;DHT22;1444;49.166;7.312;2023-02-25T15:14:36;10.30;76.70
2873;DHT22;1444;49.166;7.312;2023-02-25T15:17:38;10.20;77.30
2873;DHT22;1444;49.166;7.312;2023-02-25T15:20:25;10.20;77.30
2873;DHT22;1444;49.166;7.312;2023-02-25T15:23:06;10.20;78.40
2873;DHT22;1444;49.166;7.312;2023-02-25T15:25:39;10.20;77.40
2873;DHT22;1444;49.166;7.312;2023-02-25T15:28:36;10.20;78.40
2873;DHT22;1444;49.166;7.312;2023-02-25T15:34:31;10.30;77.90
2873;DHT22;1444;49.166;7.312;2023-02-25T15:37:32;10.20;76.60
2873;DHT22;1444;49.166;7.312;2023-02-25T15:40:04;10.00;76.20
2873;DHT22;1444;49.166;7.312;2023-02-25T15:42:50;9.90;77.20
2873;DHT22;1444;49.166;7.312;2023-02-25T15:45:36;9.80;77.90
2873;DHT22;1444;49.166;7.312;2023-02-25T15:48:28;9.80;78.60
2873;DHT22;1444;49.166;7.312;2023-02-25T15:50:58;9.50;78.30
2873;DHT22;1444;49.166;7.312;2023-02-25T15:56:30;9.30;79.90
2873;DHT22;1444;49.166;7.312;2023-02-25T15:59:10;9.20;81.00
2873;DHT22;1444;49.166;7.312;2023-02-25T16:01:40;8.70;85.10
2873;DHT22;1444;49.166;7.312;2023-02-25T16:04:39;8.40;88.60
2873;DHT22;1444;49.166;7.312;2023-02-25T16:07:12;8.20;90.20
2873;DHT22;1444;49.166;7.312;2023-02-25T16:09:40;7.90;90.60
2873;DHT22;1444;49.166;7.312;2023-02-25T16:12:10;7.70;90.70
2873;DHT22;1444;49.166;7.312;2023-02-25T16:14:39;7.40;91.00
2873;DHT22;1444;49.166;7.312;2023-02-25T16:17:14;7.20;91.10
2873;DHT22;1444;49.166;7.312;2023-02-25T16:19:42;7.10;91.20
2873;DHT22;1444;49.166;7.312;2023-02-25T16:22:15;6.90;91.40
2873;DHT22;1444;49.166;7.312;2023-02-25T16:24:46;6.80;91.20
2873;DHT22;1444;49.166;7.312;2023-02-25T16:29:53;6.80;91.70
2873;DHT22;1444;49.166;7.312;2023-02-25T16:32:28;6.80;91.80
2873;DHT22;1444;49.166;7.312;2023-02-25T16:35:04;6.80;91.50
2873;DHT22;1444;49.166;7.312;2023-02-25T16:37:41;6.80;91.60
2873;DHT22;1444;49.166;7.312;2023-02-25T16:40:13;6.90;91.50
2873;DHT22;1444;49.166;7.312;2023-02-25T16:42:41;7.00;91.80
2873;DHT22;1444;49.166;7.312;2023-02-25T16:45:22;7.10;91.80
2873;DHT22;1444;49.166;7.312;2023-02-25T16:47:53;7.00;91.40
2873;DHT22;1444;49.166;7.312;2023-02-25T16:50:22;7.00;91.70
2873;DHT22;1444;49.166;7.312;2023-02-25T16:52:52;7.00;91.70
2873;DHT22;1444;49.166;7.312;2023-02-25T16:58:00;6.90;91.50
2873;DHT22;1444;49.166;7.312;2023-02-25T17:00:27;6.80;91.50
2873;DHT22;1444;49.166;7.312;2023-02-25T17:02:57;6.50;91.30
2873;DHT22;1444;49.166;7.312;2023-02-25T17:05:27;6.50;91.60
2873;DHT22;1444;49.166;7.312;2023-02-25T17:07:57;6.40;91.70
2873;DHT22;1444;49.166;7.312;2023-02-25T17:10:28;6.30;91.80
2873;DHT22;1444;49.166;7.312;2023-02-25T17:12:55;6.30;91.90
2873;DHT22;1444;49.166;7.312;2023-02-25T17:15:25;6.30;91.90
2873;DHT22;1444;49.166;7.312;2023-02-25T17:17:56;6.20;91.80
2873;DHT22;1444;49.166;7.312;2023-02-25T17:20:26;6.10;91.90
2873;DHT22;1444;49.166;7.312;2023-02-25T17:22:55;6.10;92.00
2873;DHT22;1444;49.166;7.312;2023-02-25T17:25:26;6.00;92.00
2873;DHT22;1444;49.166;7.312;2023-02-25T17:27:55;6.00;92.00
2873;DHT22;1444;49.166;7.312;2023-02-25T17:30:34;5.90;91.90
2873;DHT22;1444;49.166;7.312;2023-02-25T17:33:02;5.80;92.10